Time;durP1;ratioP1;P1;durP2;ratioP2;P2;SDS_P1;SDS_P2;PMS_P1;PMS_P2;Temp;Humidity;BMP_temperature;BMP_pressure;BME280_temperature;BME280_humidity;BME280_pressure;Samples;Min_cycle;Max_cycle;Signal;HPM_P1;HPM_P2
2023/09/11 00:03:00;;;;;;;261.15;250.10;;;;;;;24.19;90.19;101298.66;10433264;28;20036;-67
2023/09/11 00:08:00;;;;;;;267.75;256.23;;;;;;;24.12;89.06;101295.31;10451140;28;20620;-67
2023/09/11 00:13:01;;;;;;;261.30;249.52;;;;;;;24.08;89.50;101297.81;10434819;28;20045;-67
2023/09/11 00:18:01;;;;;;;256.35;245.30;;;;;;;23.99;88.57;101293.13;10459015;28;20579;-67
2023/09/11 00:23:01;;;;;;;248.25;237.77;;;;;;;23.84;88.11;101294.00;10440624;28;20052;-67
2023/09/11 00:28:02;;;;;;;256.50;245.57;;;;;;;23.77;88.21;101285.97;10458986;28;20124;-66
2023/09/11 00:33:03;;;;;;;248.13;236.52;;;;;;;23.69;88.09;101285.69;10423907;28;20047;-68
2023/09/11 00:38:04;;;;;;;223.93;214.40;;;;;;;23.59;87.97;101286.47;10458070;28;20111;-66
2023/09/11 00:43:04;;;;;;;203.25;194.60;;;;;;;23.56;88.32;101279.56;10440376;28;20222;-67
2023/09/11 00:48:05;;;;;;;192.43;184.15;;;;;;;23.54;88.55;101272.66;10440217;28;20037;-67
2023/09/11 00:53:05;;;;;;;175.57;167.13;;;;;;;23.44;88.98;101265.16;10423327;28;20115;-68
2023/09/11 00:58:05;;;;;;;119.03;113.60;;;;;;;23.36;89.60;101263.78;10440605;28;20111;-67
2023/09/11 01:03:06;;;;;;;112.43;107.00;;;;;;;23.22;90.74;101262.66;10457352;28;20031;-67
2023/09/11 01:08:06;;;;;;;107.72;102.68;;;;;;;23.15;93.09;101257.38;10439256;28;20489;-67
2023/09/11 01:13:07;;;;;;;100.38;95.35;;;;;;;23.14;96.31;101246.63;10457137;28;20041;-68
2023/09/11 01:18:13;;;;;;;97.80;92.78;;;;;;;23.10;99.22;101245.50;10438267;28;20044;-67
2023/09/11 01:23:27;;;;;;;87.95;83.68;;;;;;;23.06;100.00;101247.97;10422456;28;20174;-67
2023/09/11 01:28:43;;;;;;;83.03;78.43;;;;;;;23.02;100.00;101246.03;10438120;28;20025;-67
2023/09/11 01:33:44;;;;;;;87.95;83.55;;;;;;;22.87;100.00;101233.81;10438023;28;20032;-67
2023/09/11 01:38:44;;;;;;;86.13;80.95;;;;;;;22.77;100.00;101231.00;10456165;28;20488;-66
2023/09/11 01:43:45;;;;;;;64.35;61.10;;;;;;;22.61;100.00;101224.59;10455177;28;20079;-68
2023/09/11 01:48:45;;;;;;;72.97;68.80;;;;;;;22.52;100.00;101217.94;10420942;28;20587;-68
2023/09/11 01:53:46;;;;;;;73.53;69.85;;;;;;;22.41;100.00;101219.84;10455581;28;20465;-68
2023/09/11 01:58:46;;;;;;;70.25;65.72;;;;;;;22.32;100.00;101215.94;10437131;28;20477;-67
2023/09/11 02:03:46;;;;;;;68.30;64.25;;;;;;;22.21;100.00;101209.53;10439438;28;20029;-68
2023/09/11 02:08:47;;;;;;;78.85;74.13;;;;;;;22.19;100.00;101208.16;10457801;28;20029;-67
2023/09/11 02:13:47;;;;;;;68.60;63.75;;;;;;;22.12;100.00;101208.34;10441247;28;20033;-68
2023/09/11 02:18:48;;;;;;;74.05;69.82;;;;;;;22.10;100.00;101209.72;10454598;28;20059;-68
2023/09/11 02:23:48;;;;;;;76.22;71.90;;;;;;;22.10;100.00;101213.28;10454001;28;20488;-68
2023/09/11 02:28:48;;;;;;;132.85;126.07;;;;;;;22.08;100.00;101214.66;10436267;28;20036;-67
2023/09/11 02:33:49;;;;;;;85.05;80.70;;;;;;;22.03;100.00;101204.44;10435479;28;20049;-68
2023/09/11 02:38:49;;;;;;;99.88;94.72;;;;;;;22.00;100.00;101199.44;10435768;28;20040;-67
2023/09/11 02:43:50;;;;;;;114.75;108.78;;;;;;;21.97;100.00;101198.06;10434895;28;20510;-69
2023/09/11 02:48:51;;;;;;;148.82;141.10;;;;;;;21.94;100.00;101198.59;10452148;28;20460;-68
2023/09/11 02:53:51;;;;;;;150.07;142.25;;;;;;;21.90;100.00;101191.13;10453149;28;20052;-68
2023/09/11 02:58:51;;;;;;;122.30;116.15;;;;;;;21.90;100.00;101180.91;10434426;28;20036;-67
2023/09/11 03:03:52;;;;;;;238.13;226.98;;;;;;;22.02;100.00;101183.47;10452202;28;20032;-67
2023/09/11 03:08:52;;;;;;;171.90;163.27;;;;;;;22.04;100.00;101171.06;10434345;28;20094;-68
2023/09/11 03:13:53;;;;;;;152.02;144.95;;;;;;;22.03;100.00;101183.19;10452377;28;20048;-67
2023/09/11 03:18:54;;;;;;;150.73;142.93;;;;;;;22.04;100.00;101160.03;10451628;28;20037;-67
2023/09/11 03:23:54;;;;;;;173.05;164.10;;;;;;;22.11;100.00;101164.47;10451792;28;20129;-67
2023/09/11 03:28:55;;;;;;;240.75;230.00;;;;;;;22.16;100.00;101157.09;10451208;28;20029;-66
2023/09/11 03:33:55;;;;;;;200.48;191.13;;;;;;;22.23;100.00;101160.44;10451586;28;20438;-69
2023/09/11 03:38:56;;;;;;;214.10;204.38;;;;;;;22.29;100.00;101145.56;10451680;28;20060;-68
2023/09/11 03:43:56;;;;;;;183.38;174.50;;;;;;;22.36;100.00;101152.75;10451420;28;20053;-68
2023/09/11 03:48:56;;;;;;;192.35;183.90;;;;;;;22.35;100.00;101151.94;10416014;28;20480;-68
2023/09/11 03:53:57;;;;;;;240.80;229.05;;;;;;;22.29;100.00;101150.25;10433212;28;20037;-68
2023/09/11 03:58:58;;;;;;;228.95;218.50;;;;;;;22.24;100.00;101141.97;10433245;28;20546;-68
2023/09/11 04:03:58;;;;;;;326.98;312.33;;;;;;;22.14;100.00;101141.88;10416259;28;20126;-68
2023/09/11 04:08:59;;;;;;;238.45;227.68;;;;;;;22.03;100.00;101139.06;10432280;28;20389;-67
2023/09/11 04:13:59;;;;;;;266.50;254.38;;;;;;;21.97;100.00;101131.88;10450156;28;20033;-67
2023/09/11 04:19:00;;;;;;;266.00;253.75;;;;;;;21.94;100.00;101140.69;10432242;28;20033;-67
2023/09/11 04:24:00;;;;;;;279.55;266.98;;;;;;;21.88;100.00;101147.25;10450641;28;20094;-67
2023/09/11 04:29:00;;;;;;;281.75;269.50;;;;;;;21.89;100.00;101143.44;10450860;28;20346;-69
2023/09/11 04:34:01;;;;;;;355.75;339.17;;;;;;;21.84;100.00;101132.34;10450645;28;20075;-69
2023/09/11 04:39:02;;;;;;;309.83;295.98;;;;;;;21.88;100.00;101143.69;10451641;28;20066;-69
2023/09/11 04:44:02;;;;;;;307.35;293.27;;;;;;;21.92;100.00;101134.63;10452119;28;20052;-66
2023/09/11 04:49:03;;;;;;;306.27;292.63;;;;;;;21.92;100.00;101134.63;10453599;28;20033;-66
2023/09/11 04:54:03;;;;;;;292.92;279.60;;;;;;;21.88;100.00;101135.41;10451738;28;20033;-64
2023/09/11 04:59:04;;;;;;;309.02;295.08;;;;;;;21.86;100.00;101146.72;10431886;28;20052;-64
2023/09/11 05:04:06;;;;;;;293.00;278.65;;;;;;;21.76;100.00;101146.63;10456882;28;20029;-63
2023/09/11 05:09:07;;;;;;;311.73;297.52;;;;;;;21.71;100.00;101154.88;10439699;28;20120;-64
2023/09/11 05:14:07;;;;;;;251.68;239.77;;;;;;;21.61;100.00;101147.38;10456304;28;20033;-63
2023/09/11 05:19:08;;;;;;;296.38;282.98;;;;;;;21.55;100.00;101157.53;10438405;28;20025;-67
2023/09/11 05:24:08;;;;;;;318.60;303.58;;;;;;;21.50;100.00;101163.00;10455945;28;20594;-67
2023/09/11 05:29:08;;;;;;;311.35;296.52;;;;;;;21.54;100.00;101164.16;10456060;28;20071;-67
2023/09/11 05:34:09;;;;;;;316.17;301.08;;;;;;;21.60;100.00;101162.25;10455674;28;20032;-68
2023/09/11 05:39:09;;;;;;;286.73;273.35;;;;;;;21.72;100.00;101175.84;10455950;28;20367;-69
2023/09/11 05:44:10;;;;;;;318.15;301.98;;;;;;;21.86;100.00;101184.47;10454525;28;20063;-66
2023/09/11 05:49:10;;;;;;;345.05;328.48;;;;;;;21.93;100.00;101190.59;10420760;28;20036;-68
2023/09/11 05:54:11;;;;;;;303.88;289.25;;;;;;;21.97;100.00;101205.50;10436987;28;20150;-67
2023/09/11 05:59:11;;;;;;;355.33;337.40;;;;;;;21.99;100.00;101209.66;10454588;28;20093;-67
2023/09/11 06:04:12;;;;;;;330.52;314.58;;;;;;;22.01;100.00;101218.47;10453865;28;20028;-67
2023/09/11 06:09:12;;;;;;;316.75;300.52;;;;;;;22.08;100.00;101211.91;10419964;28;20044;-67
2023/09/11 06:14:13;;;;;;;401.33;380.80;;;;;;;22.04;100.00;101204.16;10436178;28;20037;-67
2023/09/11 06:19:13;;;;;;;399.33;379.50;;;;;;;21.96;100.00;101212.13;10453725;28;20036;-66
2023/09/11 06:24:14;;;;;;;369.02;350.42;;;;;;;22.37;100.00;101204.94;10453798;28;20029;-66
2023/09/11 06:29:14;;;;;;;403.40;382.85;;;;;;;22.16;100.00;101214.19;10435849;28;20044;-67
2023/09/11 06:34:15;;;;;;;399.80;379.20;;;;;;;22.02;100.00;101203.59;10453587;28;20029;-67
2023/09/11 06:39:15;;;;;;;395.40;375.13;;;;;;;23.64;100.00;101198.00;10453039;28;20056;-67
2023/09/11 06:44:16;;;;;;;334.45;317.58;;;;;;;24.90;100.00;101202.63;10453238;28;20118;-68
2023/09/11 06:49:16;;;;;;;374.10;354.40;;;;;;;25.87;100.00;101205.47;10452878;28;20040;-67
2023/09/11 06:54:17;;;;;;;443.00;420.45;;;;;;;26.56;100.00;101214.44;10453865;28;20368;-68
2023/09/11 06:59:17;;;;;;;565.85;535.15;;;;;;;27.02;100.00;101211.00;10434678;28;20032;-66
2023/09/11 07:04:17;;;;;;;610.95;577.30;;;;;;;27.31;96.45;101215.63;10452571;28;20360;-68
2023/09/11 07:09:18;;;;;;;616.00;581.60;;;;;;;27.89;94.55;101218.00;10434219;28;20033;-66
2023/09/11 07:14:19;;;;;;;617.30;582.92;;;;;;;28.01;91.79;101220.28;10418152;28;20122;-67
2023/09/11 07:19:22;;;;;;;627.88;592.30;;;;;;;28.15;88.16;101214.72;10436128;28;20458;-67
2023/09/11 07:24:22;;;;;;;608.10;573.80;;;;;;;28.34;88.62;101232.16;10435970;28;20029;-67
2023/09/11 07:29:26;;;;;;;622.97;588.05;;;;;;;28.47;83.92;101231.38;10452269;28;20139;-67
2023/09/11 07:34:26;;;;;;;620.85;585.80;;;;;;;28.94;84.15;101217.25;10453401;28;20170;-67
2023/09/11 07:39:27;;;;;;;599.65;566.10;;;;;;;29.20;76.10;101228.69;10434978;28;20106;-67
2023/09/11 07:44:27;;;;;;;570.40;539.47;;;;;;;29.17;76.86;101229.31;10450662;28;20111;-68
2023/09/11 07:49:29;;;;;;;604.53;571.50;;;;;;;29.56;77.70;101231.41;10450508;28;20388;-66
2023/09/11 07:54:29;;;;;;;555.35;526.63;;;;;;;29.99;71.22;101224.44;10432820;28;20043;-66
2023/09/11 07:59:29;;;;;;;554.42;525.58;;;;;;;29.92;68.88;101229.66;10450873;28;20402;-69
2023/09/11 08:04:30;;;;;;;510.17;484.95;;;;;;;30.37;65.09;101243.53;10451145;28;20032;-67
2023/09/11 08:09:30;;;;;;;484.38;461.13;;;;;;;30.51;60.27;101252.63;10433090;28;20033;-67
2023/09/11 08:14:31;;;;;;;462.83;441.00;;;;;;;30.75;59.31;101258.59;10450358;28;20110;-67
2023/09/11 08:19:31;;;;;;;438.83;418.88;;;;;;;30.85;57.44;101262.28;10451806;28;20036;-67
2023/09/11 08:24:32;;;;;;;445.50;424.25;;;;;;;31.10;58.80;101258.69;10450418;28;20400;-67
2023/09/11 08:29:32;;;;;;;420.15;400.65;;;;;;;31.28;56.82;101260.34;10432813;28;20033;-68
2023/09/11 08:34:32;;;;;;;447.58;425.25;;;;;;;31.18;59.45;101263.47;10454635;28;20098;-68
2023/09/11 08:39:33;;;;;;;438.75;418.65;;;;;;;31.14;56.15;101273.66;10459389;28;20438;-67
2023/09/11 08:44:33;;;;;;;443.83;423.50;;;;;;;31.36;58.42;101267.13;10458610;28;20482;-68
2023/09/11 08:49:34;;;;;;;571.95;540.95;;;;;;;31.60;59.43;101258.22;10458966;28;20126;-66
2023/09/11 08:54:40;;;;;;;479.30;456.52;;;;;;;31.70;57.07;101257.88;10407595;28;20448;-68
2023/09/11 08:59:43;;;;;;;483.27;459.45;;;;;;;32.04;57.74;101263.78;10440631;28;20041;-67
2023/09/11 09:04:43;;;;;;;530.92;503.50;;;;;;;32.06;55.29;101259.44;10438813;28;20095;-68
2023/09/11 09:09:44;;;;;;;495.85;471.55;;;;;;;32.07;55.43;101269.53;10439550;28;20075;-67
2023/09/11 09:14:46;;;;;;;506.23;481.33;;;;;;;32.32;56.10;101272.53;10439339;28;20021;-67
2023/09/11 09:19:46;;;;;;;450.33;429.20;;;;;;;32.42;54.31;101280.59;10458897;28;20044;-67
2023/09/11 09:24:49;;;;;;;444.02;422.92;;;;;;;32.27;54.00;101278.34;10458093;28;20504;-67
2023/09/11 09:29:49;;;;;;;409.70;390.73;;;;;;;32.51;53.55;101288.97;10440302;28;20064;-67
2023/09/11 09:34:53;;;;;;;434.63;414.65;;;;;;;32.47;53.28;101277.63;10456851;28;20086;-67
2023/09/11 09:39:54;;;;;;;464.35;441.50;;;;;;;32.56;54.29;101283.19;10440046;28;20028;-66
2023/09/11 09:44:55;;;;;;;446.58;425.63;;;;;;;32.65;53.15;101282.00;10455562;28;20340;-67
2023/09/11 09:49:56;;;;;;;419.98;400.52;;;;;;;32.76;53.61;101274.00;10439144;28;20079;-68
2023/09/11 09:55:02;;;;;;;411.58;392.92;;;;;;;32.81;53.29;101281.41;10422301;28;20023;-67
2023/09/11 10:00:03;;;;;;;387.85;370.38;;;;;;;32.73;52.13;101279.47;10457138;28;20043;-68
2023/09/11 10:05:05;;;;;;;388.25;370.40;;;;;;;32.52;52.58;101280.25;10421798;28;20090;-67
2023/09/11 10:10:31;;;;;;;392.40;374.83;;;;;;;32.38;53.25;101288.84;10456065;28;20032;-68
2023/09/11 10:15:33;;;;;;;400.98;382.77;;;;;;;32.03;53.14;101281.72;10455643;28;20111;-68
2023/09/11 10:20:34;;;;;;;410.23;390.98;;;;;;;31.82;54.16;101290.81;10455959;28;20024;-68
2023/09/11 10:25:39;;;;;;;436.08;415.88;;;;;;;31.99;54.80;101275.97;10456752;28;20029;-67
2023/09/11 10:30:45;;;;;;;415.75;396.63;;;;;;;31.76;54.26;101278.13;10439374;28;20127;-68
2023/09/11 10:35:46;;;;;;;425.75;405.35;;;;;;;31.57;54.73;101288.84;10455543;28;20028;-69
2023/09/11 10:40:46;;;;;;;391.75;373.77;;;;;;;31.41;56.60;101296.94;10421047;28;20060;-67
2023/09/11 10:45:48;;;;;;;385.02;367.45;;;;;;;31.34;56.60;101303.03;10435409;28;20325;-68
2023/09/11 10:50:48;;;;;;;377.25;360.42;;;;;;;30.47;58.92;101296.34;10453515;28;20031;-67
2023/09/11 10:55:49;;;;;;;397.63;379.45;;;;;;;30.33;60.20;101304.84;10435225;28;20381;-68
2023/09/11 11:00:53;;;;;;;375.05;357.48;;;;;;;28.73;64.54;101297.72;10417557;28;20103;-68
2023/09/11 11:05:54;;;;;;;406.70;387.20;;;;;;;27.84;70.29;101307.16;10417890;28;20033;-67
2023/09/11 11:10:57;;;;;;;488.92;464.73;;;;;;;27.09;75.29;101313.50;10452257;28;20048;-67
2023/09/11 11:16:21;;;;;;;471.55;448.27;;;;;;;27.43;75.45;101318.88;10452239;28;20120;-68
2023/09/11 11:21:22;;;;;;;463.02;440.67;;;;;;;27.68;74.29;101314.06;10452387;28;20025;-67
2023/09/11 11:26:24;;;;;;;493.38;468.88;;;;;;;27.36;75.49;101313.69;10434164;28;20087;-67
2023/09/11 11:31:24;;;;;;;488.00;463.95;;;;;;;27.04;75.54;101313.59;10434658;28;20033;-66
2023/09/11 11:36:26;;;;;;;535.72;508.13;;;;;;;27.24;75.26;101312.50;10452330;28;20029;-67
2023/09/11 11:41:26;;;;;;;525.70;498.48;;;;;;;27.14;75.32;101319.03;10433735;28;20033;-67
2023/09/11 11:46:28;;;;;;;524.95;498.50;;;;;;;26.74;75.93;101328.66;10416265;28;20036;-66
2023/09/11 11:51:29;;;;;;;520.17;493.42;;;;;;;26.49;76.84;101332.59;10451498;28;20445;-67
2023/09/11 11:56:30;;;;;;;514.78;488.48;;;;;;;26.58;76.11;101328.03;10433548;28;20032;-68
2023/09/11 12:01:35;;;;;;;511.40;485.70;;;;;;;26.52;76.81;101329.22;10450748;28;20087;-67
2023/09/11 12:06:35;;;;;;;512.50;486.48;;;;;;;26.76;76.05;101334.78;10450972;28;20103;-67
2023/09/11 12:11:38;;;;;;;508.00;481.80;;;;;;;26.79;75.57;101323.88;10422355;28;20356;-67
2023/09/11 12:16:38;;;;;;;517.60;491.00;;;;;;;27.74;72.44;101335.13;10459131;28;20393;-68
2023/09/11 12:21:40;;;;;;;515.92;489.80;;;;;;;29.01;68.26;101317.25;10441500;28;20028;-68
2023/09/11 12:26:41;;;;;;;516.50;490.17;;;;;;;29.60;63.96;101326.47;10441280;28;20029;-68
2023/09/11 12:31:41;;;;;;;530.00;502.80;;;;;;;29.42;64.19;101319.94;10441593;28;20464;-67
2023/09/11 12:36:42;;;;;;;527.92;501.00;;;;;;;28.66;64.88;101323.22;10424898;28;20025;-67
2023/09/11 12:41:42;;;;;;;544.80;516.83;;;;;;;28.82;64.60;101320.13;10440897;28;20029;-67
2023/09/11 12:46:43;;;;;;;539.92;512.17;;;;;;;29.44;62.42;101320.44;10439788;28;20092;-66
2023/09/11 12:51:43;;;;;;;523.38;496.73;;;;;;;29.27;63.55;101312.72;10423627;28;20044;-67
2023/09/11 12:56:44;;;;;;;502.00;476.40;;;;;;;29.51;63.22;101311.63;10458979;28;20132;-68
2023/09/11 13:01:44;;;;;;;480.52;456.67;;;;;;;29.37;61.81;101301.34;10440071;28;20032;-68
2023/09/11 13:06:44;;;;;;;523.42;496.80;;;;;;;29.71;61.31;101299.16;10457644;28;20120;-67
2023/09/11 13:11:45;;;;;;;504.13;478.73;;;;;;;29.76;59.67;101308.22;10439676;28;20044;-66
2023/09/11 13:16:45;;;;;;;484.30;460.50;;;;;;;29.92;60.48;101297.50;10457039;28;20315;-67
2023/09/11 13:21:46;;;;;;;463.83;441.67;;;;;;;29.61;60.88;101300.22;10405256;28;20448;-67
2023/09/11 13:26:46;;;;;;;452.45;431.00;;;;;;;29.68;60.97;101303.44;10422555;28;20361;-67
2023/09/11 13:31:46;;;;;;;455.08;433.65;;;;;;;29.43;61.65;101313.22;10456773;28;20056;-68
2023/09/11 13:36:47;;;;;;;446.35;425.00;;;;;;;28.98;62.76;101308.31;10455918;28;20372;-68
2023/09/11 13:41:48;;;;;;;432.55;412.38;;;;;;;28.82;63.16;101315.38;10438942;28;20036;-68
2023/09/11 13:46:48;;;;;;;438.35;417.48;;;;;;;28.71;62.31;101317.50;10439072;28;20481;-67
2023/09/11 13:51:52;;;;;;;450.48;428.98;;;;;;;28.50;63.43;101310.72;10422642;28;20057;-66
2023/09/11 13:56:52;;;;;;;453.60;431.77;;;;;;;28.36;64.01;101307.06;10456710;28;20074;-67
2023/09/11 14:01:52;;;;;;;470.75;448.38;;;;;;;28.04;64.44;101306.78;10460875;28;20565;-66
2023/09/11 14:06:53;;;;;;;457.83;435.90;;;;;;;27.71;64.85;101302.31;10439024;28;20064;-67
2023/09/11 14:11:54;;;;;;;492.00;467.63;;;;;;;27.68;65.48;101309.31;10456248;28;20029;-68
2023/09/11 14:16:54;;;;;;;492.50;468.60;;;;;;;27.62;66.04;101312.50;10438335;28;20029;-67
2023/09/11 14:21:54;;;;;;;479.50;455.85;;;;;;;27.70;66.07;101311.81;10437686;28;20479;-67
2023/09/11 14:26:55;;;;;;;492.17;467.75;;;;;;;27.84;65.88;101311.88;10454835;28;20339;-67
2023/09/11 14:31:56;;;;;;;469.27;446.67;;;;;;;27.81;65.85;101314.13;10437730;28;20032;-68
2023/09/11 14:36:56;;;;;;;484.70;460.45;;;;;;;27.65;66.53;101321.06;10437912;28;20115;-68
2023/09/11 14:41:57;;;;;;;470.23;447.73;;;;;;;27.43;67.18;101332.78;10438324;28;20044;-66
2023/09/11 14:46:57;;;;;;;471.45;448.70;;;;;;;27.28;67.68;101330.22;10455390;28;20468;-66
2023/09/11 14:51:57;;;;;;;486.33;462.52;;;;;;;26.73;68.81;101329.81;10440409;28;20056;-70
2023/09/11 14:56:58;;;;;;;546.30;518.05;;;;;;;26.19;70.74;101327.00;10420834;28;20029;-68
2023/09/11 15:01:58;;;;;;;531.40;503.92;;;;;;;25.83;72.07;101326.50;10455351;28;20389;-66
2023/09/11 15:06:59;;;;;;;505.20;479.92;;;;;;;25.50;72.46;101295.66;10437123;28;20037;-66
2023/09/11 15:11:59;;;;;;;511.48;485.42;;;;;;;25.06;75.62;101299.22;10436563;28;20409;-67
2023/09/11 15:17:00;;;;;;;466.23;443.40;;;;;;;24.75;76.19;101306.00;10436185;28;20109;-68
2023/09/11 15:22:00;;;;;;;483.20;459.15;;;;;;;24.41;79.66;101303.91;10454562;28;20036;-67
2023/09/11 15:27:00;;;;;;;488.85;465.20;;;;;;;23.71;84.62;101292.59;10438060;28;20029;-68
2023/09/11 15:32:01;;;;;;;486.65;462.90;;;;;;;23.32;87.63;101295.81;10435968;28;20033;-68
2023/09/11 15:37:01;;;;;;;505.98;480.48;;;;;;;23.10;88.96;101286.94;10451685;28;20549;-68
2023/09/11 15:42:02;;;;;;;491.13;467.02;;;;;;;22.84;88.55;101261.97;10433347;28;20039;-66
2023/09/11 15:47:02;;;;;;;515.28;489.45;;;;;;;22.75;87.60;101250.63;10450114;28;20052;-68
2023/09/11 15:52:03;;;;;;;554.38;525.30;;;;;;;22.61;85.53;101234.81;10452863;28;20401;-66
2023/09/11 15:57:03;;;;;;;570.63;540.70;;;;;;;22.48;85.17;101236.97;10455034;28;20044;-66
2023/09/11 16:02:04;;;;;;;541.15;513.47;;;;;;;22.35;86.93;101228.38;10436059;28;20033;-66
2023/09/11 16:07:04;;;;;;;536.17;507.38;;;;;;;22.12;91.91;101182.72;10434351;28;20405;-67
2023/09/11 16:12:05;;;;;;;595.88;562.80;;;;;;;22.05;92.93;101214.13;10434238;28;20029;-66
2023/09/11 16:17:06;;;;;;;588.75;556.85;;;;;;;22.08;92.61;101198.09;10432735;28;20372;-67
2023/09/11 16:22:06;;;;;;;591.25;559.50;;;;;;;22.06;92.02;101168.88;10433132;28;20355;-67
2023/09/11 16:27:10;;;;;;;584.90;552.50;;;;;;;22.05;93.83;101160.88;10417404;28;20065;-66
2023/09/11 16:32:10;;;;;;;590.22;558.38;;;;;;;21.95;95.69;101194.75;10417467;28;20429;-67
2023/09/11 16:37:12;;;;;;;585.35;554.47;;;;;;;21.88;97.89;101232.72;10450909;28;20037;-67
2023/09/11 16:42:13;;;;;;;607.53;574.65;;;;;;;21.80;99.63;101236.00;10432917;28;20047;-68
2023/09/11 16:47:13;;;;;;;611.72;578.45;;;;;;;21.76;99.24;101245.88;10431037;28;20080;-68
2023/09/11 16:52:14;;;;;;;594.30;562.85;;;;;;;21.74;99.69;101256.34;10450515;28;20537;-67
2023/09/11 16:57:15;;;;;;;600.55;568.05;;;;;;;21.68;100.00;101240.84;10455117;28;20033;-68
2023/09/11 17:02:15;;;;;;;586.00;555.03;;;;;;;21.62;100.00;101250.19;10439463;28;20056;-67
2023/09/11 17:07:15;;;;;;;585.38;554.70;;;;;;;21.61;100.00;101249.34;10439654;28;20052;-67
2023/09/11 17:12:17;;;;;;;602.45;569.92;;;;;;;21.58;100.00;101255.38;10457590;28;20427;-68
2023/09/11 17:17:17;;;;;;;596.63;563.40;;;;;;;21.51;100.00;101272.13;10457046;28;20028;-67
2023/09/11 17:22:17;;;;;;;605.97;573.63;;;;;;;21.47;100.00;101265.47;10438807;28;20025;-67
2023/09/11 17:27:18;;;;;;;609.58;576.22;;;;;;;21.33;100.00;101270.56;10456266;28;20040;-67
2023/09/11 17:32:18;;;;;;;604.78;572.10;;;;;;;21.23;100.00;101278.72;10438707;28;20067;-67
2023/09/11 17:37:19;;;;;;;586.25;554.70;;;;;;;21.23;100.00;101277.88;10456378;28;20025;-67
2023/09/11 17:42:19;;;;;;;598.47;566.45;;;;;;;21.21;100.00;101275.38;10456412;28;20087;-67
2023/09/11 17:47:20;;;;;;;585.88;554.17;;;;;;;21.23;100.00;101259.44;10455454;28;20057;-66
2023/09/11 17:52:20;;;;;;;594.63;561.90;;;;;;;21.27;100.00;101276.28;10456693;28;20643;-67
2023/09/11 17:57:21;;;;;;;570.30;539.67;;;;;;;21.21;100.00;101249.75;10438629;28;20025;-67
2023/09/11 18:02:22;;;;;;;571.58;541.30;;;;;;;21.11;100.00;101264.25;10437322;28;20330;-67
2023/09/11 18:07:23;;;;;;;570.55;540.25;;;;;;;21.01;100.00;101273.25;10454694;28;20460;-68
2023/09/11 18:12:23;;;;;;;569.45;538.13;;;;;;;20.97;100.00;101277.63;10437354;28;20100;-68
2023/09/11 18:17:24;;;;;;;514.53;487.55;;;;;;;20.88;100.00;101290.16;10436670;28;20033;-67
2023/09/11 18:22:24;;;;;;;553.28;523.65;;;;;;;20.77;100.00;101288.34;10454806;28;20117;-68
2023/09/11 18:27:25;;;;;;;570.17;539.13;;;;;;;20.63;100.00;101291.50;10436165;28;20024;-68
2023/09/11 18:32:25;;;;;;;557.67;527.70;;;;;;;20.48;100.00;101285.75;10454443;28;20112;-67
2023/09/11 18:37:25;;;;;;;554.22;524.22;;;;;;;20.42;100.00;101281.25;10454294;28;20036;-68
2023/09/11 18:42:26;;;;;;;555.75;526.15;;;;;;;20.37;100.00;101295.78;10453963;28;20040;-68
2023/09/11 18:47:28;;;;;;;549.33;520.30;;;;;;;20.32;100.00;101297.63;10434821;28;20053;-71
2023/09/11 18:52:28;;;;;;;556.58;526.28;;;;;;;20.32;100.00;101303.13;10435650;28;20029;-72
2023/09/11 18:57:29;;;;;;;537.13;508.38;;;;;;;20.34;100.00;101306.47;10452633;28;20045;-66
2023/09/11 19:02:31;;;;;;;555.70;524.75;;;;;;;20.37;100.00;101317.78;10361394;28;20041;-67
2023/09/11 19:07:31;;;;;;;560.42;529.92;;;;;;;20.38;100.00;101302.94;10452335;28;20047;-66
2023/09/11 19:12:32;;;;;;;561.85;530.83;;;;;;;20.42;100.00;101298.63;10435200;28;20362;-65
2023/09/11 19:17:32;;;;;;;588.45;556.05;;;;;;;20.50;100.00;101305.59;10434192;28;20056;-64
2023/09/11 19:22:33;;;;;;;592.75;559.55;;;;;;;20.55;100.00;101300.22;10452235;28;20044;-65
2023/09/11 19:27:36;;;;;;;568.05;536.75;;;;;;;20.56;100.00;101298.28;10418899;28;20094;-65
2023/09/11 19:32:37;;;;;;;563.03;532.00;;;;;;;20.56;100.00;101293.59;10417020;28;20044;-66
2023/09/11 19:37:38;;;;;;;581.25;548.55;;;;;;;20.61;100.00;101296.44;10419861;28;20453;-64
2023/09/11 19:42:38;;;;;;;582.75;550.28;;;;;;;20.64;100.00;101311.59;10451816;28;20048;-66
2023/09/11 19:47:39;;;;;;;570.35;537.78;;;;;;;20.62;100.00;101305.53;10450182;28;20494;-69
2023/09/11 19:52:39;;;;;;;578.65;545.90;;;;;;;20.65;100.00;101299.50;10451348;28;20073;-65
2023/09/11 19:57:40;;;;;;;583.85;550.28;;;;;;;20.60;100.00;101311.25;10451804;28;20048;-67
2023/09/11 20:02:40;;;;;;;577.47;545.33;;;;;;;20.64;100.00;101311.59;10433935;28;20036;-68
2023/09/11 20:07:43;;;;;;;588.97;556.40;;;;;;;20.69;100.00;101328.19;10433374;28;20070;-67
2023/09/11 20:12:44;;;;;;;592.97;559.03;;;;;;;20.70;100.00;101335.34;10450177;28;20063;-68
2023/09/11 20:17:44;;;;;;;580.20;548.25;;;;;;;20.69;100.00;101346.63;10451010;28;20061;-68
2023/09/11 20:22:45;;;;;;;619.75;584.50;;;;;;;20.66;100.00;101337.78;10446685;28;20435;-67
2023/09/11 20:27:45;;;;;;;579.33;547.38;;;;;;;20.65;100.00;101307.78;10433574;28;20037;-67
2023/09/11 20:32:46;;;;;;;584.65;551.50;;;;;;;20.62;100.00;101302.78;10457547;28;20028;-66
2023/09/11 20:37:46;;;;;;;600.22;566.03;;;;;;;20.60;100.00;101327.78;10458335;28;20056;-68
2023/09/11 20:42:46;;;;;;;587.92;555.25;;;;;;;20.59;100.00;101314.28;10458847;28;20059;-66
2023/09/11 20:47:47;;;;;;;597.13;562.97;;;;;;;20.56;100.00;101293.59;10439832;28;20065;-66
2023/09/11 20:52:47;;;;;;;653.05;615.00;;;;;;;20.50;100.00;101307.53;10457138;28;20495;-65
2023/09/11 20:57:48;;;;;;;604.15;569.85;;;;;;;20.32;100.00;101303.94;10458199;28;20056;-66
2023/09/11 21:02:48;;;;;;;631.03;594.35;;;;;;;20.17;100.00;101295.50;10439702;28;20481;-66
2023/09/11 21:07:50;;;;;;;623.45;587.78;;;;;;;20.05;100.00;101294.75;10457650;28;20089;-67
2023/09/11 21:12:55;;;;;;;630.42;594.92;;;;;;;19.92;100.00;101316.00;10457165;28;20029;-67
2023/09/11 21:17:55;;;;;;;650.35;612.05;;;;;;;19.84;100.00;101313.66;10422431;28;20033;-68
2023/09/11 21:22:56;;;;;;;648.08;610.45;;;;;;;19.72;100.00;101315.66;10438434;28;20025;-67
2023/09/11 21:27:57;;;;;;;689.42;646.97;;;;;;;19.68;100.00;101318.06;10456633;28;20053;-67
2023/09/11 21:32:58;;;;;;;664.85;625.80;;;;;;;19.54;100.00;101310.34;10438356;28;20068;-67
2023/09/11 21:37:58;;;;;;;676.45;635.53;;;;;;;19.39;100.00;101303.50;10455865;28;20037;-67
2023/09/11 21:42:59;;;;;;;662.75;623.40;;;;;;;19.31;100.00;101303.06;10455161;28;20029;-68
2023/09/11 21:47:59;;;;;;;672.35;632.97;;;;;;;19.26;100.00;101301.88;10436913;28;20118;-67
2023/09/11 21:52:59;;;;;;;688.63;646.58;;;;;;;19.25;100.00;101302.97;10455764;28;20071;-67
2023/09/11 21:58:00;;;;;;;681.67;638.50;;;;;;;19.33;100.00;101303.66;10455142;28;20037;-67